Time;durP1;ratioP1;P1;durP2;ratioP2;P2;SDS_P1;SDS_P2;PMS_P1;PMS_P2;Temp;Humidity;BMP_temperature;BMP_pressure;BME280_temperature;BME280_humidity;BME280_pressure;Samples;Min_cycle;Max_cycle;Signal;HPM_P1;HPM_P2
2022/06/05 00:02:00;;;;;;;21.45;13.55;;;11.00;99.90;;;;;;4989540;28;20057;-84
2022/06/05 00:04:34;;;;;;;26.77;15.65;;;11.00;99.90;;;;;;5003329;28;20054;-84
2022/06/05 00:07:13;;;;;;;21.38;13.40;;;11.00;99.90;;;;;;4973978;28;20477;-84
2022/06/05 00:09:45;;;;;;;32.75;19.13;;;11.00;99.90;;;;;;4987741;28;20049;-84
2022/06/05 00:12:14;;;;;;;23.67;14.32;;;11.00;99.90;;;;;;4990871;28;20042;-84
2022/06/05 00:14:41;;;;;;;32.42;19.30;;;10.90;99.90;;;;;;4992036;28;20208;-84
2022/06/05 00:17:19;;;;;;;33.28;21.05;;;11.00;99.90;;;;;;5007243;28;20155;-84
2022/06/05 00:19:48;;;;;;;18.15;11.13;;;11.00;99.90;;;;;;4990604;28;20046;-84
2022/06/05 00:22:18;;;;;;;25.60;14.82;;;11.00;99.90;;;;;;4962085;28;20401;-84
2022/06/05 00:24:44;;;;;;;23.63;14.15;;;11.00;99.90;;;;;;5006062;28;20046;-84
2022/06/05 00:27:38;;;;;;;45.45;28.25;;;11.00;99.90;;;;;;4972448;28;20038;-84
2022/06/05 00:30:03;;;;;;;47.22;27.30;;;11.00;99.90;;;;;;4993162;28;20231;-84
2022/06/05 00:32:58;;;;;;;21.20;14.13;;;11.00;99.90;;;;;;5001274;28;20053;-84
2022/06/05 00:35:30;;;;;;;26.25;16.08;;;11.00;99.90;;;;;;4990725;28;20076;-84
2022/06/05 00:38:15;;;;;;;43.08;23.65;;;11.00;99.90;;;;;;5004675;28;20157;-84
2022/06/05 00:41:18;;;;;;;22.33;14.02;;;11.00;99.90;;;;;;4975009;28;20042;-83
2022/06/05 00:43:46;;;;;;;32.08;18.67;;;11.00;99.90;;;;;;4961437;28;20050;-84
2022/06/05 00:46:11;;;;;;;40.78;24.27;;;11.00;99.90;;;;;;4987109;28;20039;-83
2022/06/05 00:48:37;;;;;;;45.35;26.17;;;11.10;99.90;;;;;;5007091;28;20515;-84
2022/06/05 00:51:03;;;;;;;42.85;23.55;;;11.00;99.90;;;;;;4976016;28;20054;-84
2022/06/05 00:53:29;;;;;;;32.97;15.15;;;11.10;99.90;;;;;;4975050;28;20065;-84
2022/06/05 00:55:54;;;;;;;18.15;12.27;;;11.00;99.90;;;;;;4961839;28;20483;-85
2022/06/05 00:58:21;;;;;;;34.30;21.15;;;11.00;99.90;;;;;;4991553;28;20046;-84
2022/06/05 01:00:53;;;;;;;28.85;17.73;;;11.00;99.90;;;;;;4987669;28;20042;-84
2022/06/05 01:03:20;;;;;;;19.42;14.25;;;11.00;99.90;;;;;;4992329;28;20145;-84
2022/06/05 01:05:46;;;;;;;17.63;12.70;;;11.00;99.90;;;;;;4976387;28;20047;-84
2022/06/05 01:08:14;;;;;;;33.30;18.52;;;11.00;99.90;;;;;;4973236;28;20057;-84
2022/06/05 01:10:43;;;;;;;30.85;17.88;;;11.00;99.90;;;;;;4977515;28;20491;-84
2022/06/05 01:13:20;;;;;;;38.42;21.88;;;11.00;99.90;;;;;;4975012;28;20556;-84
2022/06/05 01:16:24;;;;;;;79.45;41.90;;;11.00;1.00;;;;;;4991251;28;20069;-84
2022/06/05 01:19:23;;;;;;;26.67;17.15;;;11.00;1.00;;;;;;4966163;28;20103;-84
2022/06/05 01:22:15;;;;;;;35.58;18.23;;;11.00;1.00;;;;;;4992093;28;20038;-83
2022/06/05 01:25:01;;;;;;;22.50;13.65;;;11.00;99.90;;;;;;5002413;28;20050;-84
2022/06/05 01:27:31;;;;;;;78.35;40.47;;;11.00;99.90;;;;;;4971662;28;20045;-83
2022/06/05 01:30:03;;;;;;;20.20;13.15;;;11.00;99.90;;;;;;4991755;28;20282;-84
2022/06/05 01:32:41;;;;;;;38.35;22.63;;;11.00;1.00;;;;;;4976285;28;20034;-84
2022/06/05 01:35:31;;;;;;;44.38;27.27;;;11.00;1.00;;;;;;4970226;28;20165;-83
2022/06/05 01:38:03;;;;;;;21.25;12.73;;;11.00;1.00;;;;;;4989293;28;20408;-84
2022/06/05 01:40:45;;;;;;;21.58;13.63;;;11.00;1.00;;;;;;4978055;28;20137;-84
2022/06/05 01:43:15;;;;;;;30.40;15.43;;;11.00;1.00;;;;;;4978960;28;20593;-84
2022/06/05 01:46:06;;;;;;;39.55;20.40;;;11.10;1.00;;;;;;5004807;28;20112;-84
2022/06/05 01:48:47;;;;;;;20.80;13.32;;;11.10;1.00;;;;;;5003917;28;20046;-84
2022/06/05 01:51:19;;;;;;;18.60;13.63;;;11.10;1.00;;;;;;4991134;28;20253;-84
2022/06/05 01:53:47;;;;;;;19.85;12.75;;;11.10;1.00;;;;;;4979756;28;20325;-85
2022/06/05 01:56:35;;;;;;;19.17;12.75;;;11.00;1.00;;;;;;4984464;28;20546;-84
2022/06/05 01:59:17;;;;;;;22.48;13.02;;;11.10;1.00;;;;;;5005642;28;20051;-84
2022/06/05 02:01:48;;;;;;;19.27;12.45;;;11.10;1.00;;;;;;4976074;28;20545;-83
2022/06/05 02:04:35;;;;;;;19.40;13.25;;;11.10;1.00;;;;;;5006159;28;20469;-84
2022/06/05 02:07:13;;;;;;;21.55;13.45;;;11.10;1.00;;;;;;4989537;28;20052;-84
2022/06/05 02:10:03;;;;;;;17.40;12.18;;;11.10;1.00;;;;;;4999755;28;20066;-84
2022/06/05 02:12:28;;;;;;;21.13;12.48;;;11.20;1.00;;;;;;5006844;28;20047;-84
2022/06/05 02:14:55;;;;;;;19.83;12.85;;;11.10;1.00;;;;;;4975595;28;20049;-85
2022/06/05 02:17:24;;;;;;;17.50;12.25;;;11.20;1.00;;;;;;4978050;28;20061;-84
2022/06/05 02:19:52;;;;;;;18.27;12.05;;;11.10;1.00;;;;;;4991956;28;20042;-85
2022/06/05 02:22:34;;;;;;;20.25;12.02;;;11.10;1.00;;;;;;4971887;28;20136;-85
2022/06/05 02:25:00;;;;;;;20.75;11.65;;;11.10;99.90;;;;;;5007803;28;20046;-85
2022/06/05 02:27:26;;;;;;;22.08;13.75;;;11.20;1.00;;;;;;4980126;28;20157;-84
2022/06/05 02:29:53;;;;;;;16.92;12.52;;;11.20;1.00;;;;;;5005309;28;20057;-84
2022/06/05 02:32:44;;;;;;;19.60;13.07;;;11.20;1.00;;;;;;4999527;28;20035;-84
2022/06/05 02:35:40;;;;;;;23.42;13.00;;;11.20;1.00;;;;;;4977696;28;20034;-85
2022/06/05 02:38:20;;;;;;;22.02;13.55;;;11.20;9.90;;;;;;5008047;28;20045;-86
2022/06/05 02:41:06;;;;;;;24.67;13.32;;;11.20;1.00;;;;;;4998483;28;21377;-85
2022/06/05 02:44:28;;;;;;;18.73;13.32;;;11.20;8.80;;;;;;5009691;28;20057;-84
2022/06/05 02:46:47;;;;;;;21.13;14.57;;;11.20;24.90;;;;;;4978261;28;20137;-84
2022/06/05 02:49:26;;;;;;;23.33;13.65;;;11.20;12.30;;;;;;4992053;28;20610;-84
2022/06/05 02:51:55;;;;;;;24.63;13.13;;;11.20;76.40;;;;;;4979869;28;20358;-84
2022/06/05 02:54:26;;;;;;;22.63;13.85;;;11.30;76.40;;;;;;4978499;28;20552;-84
2022/06/05 02:56:55;;;;;;;20.45;12.90;;;11.30;57.00;;;;;;5009779;28;20082;-84
2022/06/05 02:59:25;;;;;;;21.27;13.52;;;11.30;35.60;;;;;;4989346;28;20042;-85
2022/06/05 03:04:34;;;;;;;22.98;13.10;;;11.30;44.90;;;;;;4978841;28;20078;-85
2022/06/05 03:07:00;;;;;;;22.73;14.20;;;11.30;65.80;;;;;;5006355;28;20041;-84
2022/06/05 03:09:28;;;;;;;19.70;13.85;;;11.40;96.20;;;;;;4979084;28;20038;-84
2022/06/05 03:11:54;;;;;;;25.25;14.07;;;11.40;99.90;;;;;;4974834;28;20386;-84
2022/06/05 03:14:20;;;;;;;26.52;14.27;;;11.40;99.90;;;;;;4994923;28;20433;-85
2022/06/05 03:16:45;;;;;;;21.88;14.73;;;11.40;99.90;;;;;;5006133;28;20638;-85
2022/06/05 03:19:11;;;;;;;24.48;14.60;;;11.40;99.90;;;;;;5006585;28;20116;-84
2022/06/05 03:21:37;;;;;;;27.23;14.70;;;11.40;99.90;;;;;;4992359;28;20046;-85
2022/06/05 03:24:05;;;;;;;26.33;14.57;;;11.40;99.90;;;;;;4976271;28;20046;-85
2022/06/05 03:26:34;;;;;;;25.10;14.98;;;11.50;99.90;;;;;;5005251;28;20080;-84
2022/06/05 03:29:00;;;;;;;24.20;14.25;;;11.50;99.90;;;;;;4962254;28;20224;-85
2022/06/05 03:31:26;;;;;;;26.48;15.38;;;11.50;99.90;;;;;;4979933;28;20053;-84
2022/06/05 03:33:52;;;;;;;24.70;15.40;;;11.50;99.90;;;;;;5008041;28;20042;-85
2022/06/05 03:36:18;;;;;;;23.73;14.80;;;11.60;99.90;;;;;;4963069;28;20189;-85
2022/06/05 03:38:44;;;;;;;27.63;15.50;;;11.60;99.90;;;;;;4979876;28;20082;-84
2022/06/05 03:41:14;;;;;;;24.52;15.68;;;11.70;99.90;;;;;;4975326;28;20604;-84
2022/06/05 03:43:40;;;;;;;22.60;14.95;;;11.60;99.90;;;;;;4977338;28;20183;-84
2022/06/05 03:46:11;;;;;;;21.05;14.27;;;11.70;83.20;;;;;;4980708;28;21582;-85
2022/06/05 03:48:38;;;;;;;25.05;14.90;;;11.70;96.00;;;;;;5007885;28;20512;-85
2022/06/05 03:51:13;;;;;;;25.08;14.40;;;11.70;84.50;;;;;;5007667;28;20300;-84
2022/06/05 03:53:39;;;;;;;23.63;14.88;;;11.70;87.20;;;;;;4974132;28;20122;-84
2022/06/05 03:56:17;;;;;;;26.13;14.98;;;11.80;97.00;;;;;;4975479;28;20054;-85
2022/06/05 03:58:44;;;;;;;24.75;14.68;;;11.80;99.90;;;;;;4978225;28;20042;-84
2022/06/05 04:01:12;;;;;;;26.05;15.52;;;11.90;99.90;;;;;;4981338;28;20109;-85
2022/06/05 04:03:41;;;;;;;23.63;14.63;;;12.00;97.10;;;;;;4990344;28;20050;-85
2022/06/05 04:06:08;;;;;;;27.13;15.18;;;12.00;96.40;;;;;;4976369;28;20046;-85
2022/06/05 04:08:35;;;;;;;24.95;14.93;;;12.00;85.30;;;;;;4977396;28;20047;-84
2022/06/05 04:11:05;;;;;;;24.27;15.20;;;12.10;99.80;;;;;;4974840;28;20054;-83
2022/06/05 04:13:31;;;;;;;21.90;15.30;;;12.10;74.00;;;;;;5008478;28;20346;-84
2022/06/05 04:15:57;;;;;;;21.80;14.80;;;12.10;74.90;;;;;;5008786;28;20049;-84
2022/06/05 04:18:23;;;;;;;25.17;14.73;;;12.20;44.60;;;;;;5008674;28;20104;-85
2022/06/05 04:20:48;;;;;;;18.20;14.02;;;12.30;52.10;;;;;;5007465;28;20603;-84
2022/06/05 04:23:14;;;;;;;24.45;15.30;;;12.40;20.50;;;;;;4977902;28;20156;-85
2022/06/05 04:25:44;;;;;;;22.75;14.85;;;12.50;45.20;;;;;;5006562;28;20585;-84
2022/06/05 04:28:11;;;;;;;23.52;14.57;;;12.60;7.70;;;;;;5006420;28;20126;-84
2022/06/05 04:30:38;;;;;;;20.90;13.90;;;12.70;1.00;;;;;;4975706;28;20445;-84
2022/06/05 04:33:05;;;;;;;21.10;13.77;;;12.90;1.00;;;;;;5008374;28;20073;-84
2022/06/05 04:35:31;;;;;;;19.80;14.55;;;13.00;1.00;;;;;;5007618;28;20050;-84
2022/06/05 04:37:57;;;;;;;22.42;14.13;;;13.20;1.00;;;;;;5006605;28;20509;-83
2022/06/05 04:40:26;;;;;;;22.35;14.35;;;13.30;1.00;;;;;;4979761;28;20481;-85
2022/06/05 04:42:53;;;;;;;19.25;13.85;;;13.40;99.90;;;;;;4995585;28;20046;-85
2022/06/05 04:45:19;;;;;;;22.40;14.93;;;13.40;99.90;;;;;;4973529;28;20046;-84
2022/06/05 04:47:46;;;;;;;18.55;13.48;;;13.40;99.90;;;;;;5002744;28;20078;-84
2022/06/05 04:50:12;;;;;;;17.77;13.75;;;13.40;99.90;;;;;;4991830;28;20258;-84
2022/06/05 04:52:41;;;;;;;20.23;14.32;;;13.30;99.90;;;;;;5005128;28;20042;-84
2022/06/05 04:55:07;;;;;;;19.58;13.27;;;13.50;99.90;;;;;;4991546;28;20599;-84
2022/06/05 04:57:34;;;;;;;21.55;14.15;;;13.50;99.90;;;;;;5003549;28;20037;-84
2022/06/05 05:00:04;;;;;;;20.67;14.35;;;13.60;99.90;;;;;;5005563;28;20639;-84
2022/06/05 05:02:34;;;;;;;20.27;13.98;;;13.60;99.90;;;;;;4979147;28;20130;-84
2022/06/05 05:04:59;;;;;;;18.15;13.45;;;13.70;99.90;;;;;;5008368;28;20050;-85
2022/06/05 05:07:25;;;;;;;20.83;12.93;;;13.80;99.90;;;;;;5008318;28;20034;-84
2022/06/05 05:09:51;;;;;;;18.13;13.50;;;14.00;99.90;;;;;;4971033;28;20038;-84
2022/06/05 05:12:18;;;;;;;19.40;13.60;;;14.00;99.90;;;;;;4993261;28;20142;-84
2022/06/05 05:14:44;;;;;;;18.23;13.75;;;14.10;99.90;;;;;;4992052;28;20054;-84
2022/06/05 05:17:13;;;;;;;16.00;12.25;;;14.30;99.90;;;;;;4975622;28;20425;-84
2022/06/05 05:19:39;;;;;;;17.55;12.65;;;14.40;99.90;;;;;;4974647;28;20074;-84
2022/06/05 05:22:05;;;;;;;17.20;12.18;;;14.60;99.90;;;;;;4975169;28;20046;-83
2022/06/05 05:24:31;;;;;;;17.88;12.30;;;14.60;99.90;;;;;;4975992;28;20046;-84
2022/06/05 05:26:56;;;;;;;17.08;12.35;;;14.80;99.90;;;;;;4991009;28;20062;-85
2022/06/05 05:29:22;;;;;;;18.33;11.90;;;14.80;99.90;;;;;;4991869;28;20048;-85
2022/06/05 05:31:49;;;;;;;20.17;12.70;;;14.90;99.90;;;;;;5000341;28;20242;-85
2022/06/05 05:34:15;;;;;;;17.02;12.00;;;14.90;99.90;;;;;;4987785;28;20038;-84
2022/06/05 05:36:41;;;;;;;14.40;11.85;;;15.10;95.80;;;;;;4979727;28;20050;-84
2022/06/05 05:42:07;;;;;;;15.38;12.05;;;15.00;25.80;;;;;;5012658;28;20058;-85
2022/06/05 05:44:42;;;;;;;18.48;12.50;;;15.10;56.90;;;;;;4994314;28;20053;-84
2022/06/05 05:47:12;;;;;;;14.57;11.40;;;15.20;38.30;;;;;;4966579;28;20105;-84
2022/06/05 05:49:38;;;;;;;16.05;12.25;;;15.30;1.40;;;;;;4990288;28;20050;-85
2022/06/05 05:52:05;;;;;;;13.75;11.35;;;15.30;1.00;;;;;;4991810;28;20401;-85
2022/06/05 05:54:34;;;;;;;16.17;12.13;;;15.40;1.00;;;;;;5007045;28;20500;-84
2022/06/05 05:57:00;;;;;;;12.88;10.68;;;15.60;9.80;;;;;;4990539;28;20976;-85
2022/06/05 05:59:26;;;;;;;13.38;11.70;;;15.60;1.00;;;;;;4985079;28;20038;-84
2022/06/05 06:01:52;;;;;;;13.50;11.40;;;15.70;1.00;;;;;;4964520;28;20078;-85
2022/06/05 06:04:17;;;;;;;13.73;11.00;;;15.80;1.00;;;;;;4974681;28;20521;-85
2022/06/05 06:06:45;;;;;;;14.85;11.63;;;15.80;1.00;;;;;;5001829;28;20168;-85
2022/06/05 06:09:12;;;;;;;14.98;10.88;;;15.90;1.00;;;;;;4999546;28;20042;-85
2022/06/05 06:11:38;;;;;;;14.13;11.00;;;15.90;1.00;;;;;;4991153;28;20125;-84
2022/06/05 06:14:04;;;;;;;14.32;11.00;;;16.10;1.00;;;;;;4985836;28;20050;-85
2022/06/05 06:16:30;;;;;;;13.80;10.80;;;16.20;1.00;;;;;;5008996;28;20575;-84
2022/06/05 06:18:56;;;;;;;14.45;11.10;;;16.20;1.00;;;;;;4977273;28;20042;-85
2022/06/05 06:21:23;;;;;;;13.65;11.23;;;16.30;1.00;;;;;;4982918;28;20061;-85
2022/06/05 06:23:49;;;;;;;14.75;10.90;;;16.40;99.90;;;;;;4979742;28;20040;-85
2022/06/05 06:26:16;;;;;;;13.38;11.05;;;16.40;1.00;;;;;;4982600;28;20073;-84
2022/06/05 06:28:42;;;;;;;13.65;10.38;;;16.60;99.90;;;;;;5011218;28;20058;-84
2022/06/05 06:31:11;;;;;;;13.73;10.13;;;16.60;99.90;;;;;;5002207;28;20046;-85
2022/06/05 06:33:37;;;;;;;13.82;10.68;;;16.70;99.90;;;;;;4983787;28;20046;-84
2022/06/05 06:36:05;;;;;;;13.60;10.73;;;16.70;99.90;;;;;;5001225;28;20100;-84
2022/06/05 06:38:33;;;;;;;12.07;9.77;;;16.60;99.90;;;;;;4979048;28;20050;-85
2022/06/05 06:41:15;;;;;;;11.38;10.00;;;16.70;99.90;;;;;;4980101;28;20231;-84
2022/06/05 06:43:43;;;;;;;12.50;9.82;;;17.00;99.90;;;;;;4986911;28;20417;-85
2022/06/05 06:46:16;;;;;;;15.05;10.38;;;17.10;99.90;;;;;;4984705;28;20116;-84
2022/06/05 06:48:42;;;;;;;11.57;9.30;;;17.40;99.90;;;;;;5002695;28;20061;-85
2022/06/05 06:51:09;;;;;;;13.90;10.70;;;17.20;99.90;;;;;;4983297;28;20054;-84
2022/06/05 06:53:36;;;;;;;12.05;9.90;;;17.30;99.90;;;;;;4989973;28;20133;-84
2022/06/05 06:56:10;;;;;;;12.65;9.82;;;17.30;99.90;;;;;;4983956;28;20053;-84
2022/06/05 06:58:36;;;;;;;11.43;9.55;;;17.40;99.90;;;;;;5014430;28;20049;-85
2022/06/05 07:01:02;;;;;;;13.45;10.27;;;17.60;99.90;;;;;;4983042;28;20042;-85
2022/06/05 07:03:28;;;;;;;13.23;9.60;;;17.60;99.90;;;;;;4985081;28;20528;-84
2022/06/05 07:05:53;;;;;;;12.75;9.18;;;17.60;99.90;;;;;;4984701;28;20583;-84
2022/06/05 07:08:19;;;;;;;15.13;10.00;;;17.80;99.90;;;;;;4984116;28;20113;-84
2022/06/05 07:10:45;;;;;;;10.82;9.70;;;18.00;99.90;;;;;;4983081;28;20042;-85
2022/06/05 07:13:14;;;;;;;10.73;9.40;;;17.90;99.90;;;;;;4980306;28;20624;-84
2022/06/05 07:15:39;;;;;;;13.23;9.70;;;18.00;99.90;;;;;;5014398;28;20401;-84
2022/06/05 07:18:07;;;;;;;13.02;9.60;;;18.20;99.90;;;;;;4988070;28;20041;-84
2022/06/05 07:20:39;;;;;;;10.82;9.73;;;18.30;99.90;;;;;;5012946;28;20085;-84
2022/06/05 07:23:05;;;;;;;11.00;9.80;;;18.30;99.90;;;;;;5003419;28;20125;-84
2022/06/05 07:25:32;;;;;;;12.55;10.05;;;18.40;99.90;;;;;;4988875;28;20050;-85
2022/06/05 07:27:58;;;;;;;12.38;9.40;;;18.50;99.90;;;;;;4993004;28;20124;-84
2022/06/05 07:30:24;;;;;;;12.27;9.13;;;18.60;99.90;;;;;;4983784;28;20121;-85
2022/06/05 07:32:50;;;;;;;11.60;9.38;;;18.80;99.90;;;;;;5016439;28;20069;-84
2022/06/05 07:35:17;;;;;;;10.95;8.80;;;18.90;99.90;;;;;;5005596;28;20047;-84
2022/06/05 07:37:46;;;;;;;12.18;9.40;;;19.10;99.90;;;;;;4996243;28;20115;-83
2022/06/05 07:40:12;;;;;;;10.70;9.25;;;19.20;99.90;;;;;;4984169;28;20053;-84
2022/06/05 07:42:40;;;;;;;13.18;9.38;;;19.30;99.90;;;;;;4980600;28;20068;-84
2022/06/05 07:45:08;;;;;;;10.95;9.07;;;19.60;99.90;;;;;;4980448;28;20421;-85
2022/06/05 07:47:33;;;;;;;11.27;8.90;;;19.80;99.90;;;;;;4983038;28;20045;-84
2022/06/05 07:50:00;;;;;;;12.95;9.25;;;19.70;99.90;;;;;;4983115;28;20053;-84
2022/06/05 07:55:12;;;;;;;9.32;8.32;;;19.80;99.90;;;;;;4995379;28;20050;-84
2022/06/05 07:57:37;;;;;;;10.73;8.18;;;19.90;99.90;;;;;;5005283;28;20461;-84
2022/06/05 08:00:07;;;;;;;10.13;9.10;;;20.00;99.90;;;;;;4982592;28;20100;-84
2022/06/05 08:02:35;;;;;;;12.10;8.88;;;19.90;99.90;;;;;;4983207;28;20049;-84
2022/06/05 08:05:02;;;;;;;12.23;8.30;;;20.00;99.90;;;;;;4977717;28;20525;-84
2022/06/05 08:07:30;;;;;;;11.48;9.20;;;20.20;99.90;;;;;;4980038;28;20262;-84
2022/06/05 08:09:57;;;;;;;11.80;8.52;;;20.40;99.90;;;;;;4982591;28;20042;-84
2022/06/05 08:12:24;;;;;;;12.18;9.15;;;20.60;99.90;;;;;;4981007;28;20052;-84
2022/06/05 08:14:51;;;;;;;11.38;8.02;;;20.70;99.90;;;;;;4981120;28;20454;-83
2022/06/05 08:17:20;;;;;;;10.23;8.23;;;21.00;99.90;;;;;;4978688;28;20050;-84
2022/06/05 08:19:47;;;;;;;9.23;8.32;;;21.10;99.90;;;;;;4999326;28;20457;-84
2022/06/05 08:22:15;;;;;;;10.88;8.52;;;20.90;99.90;;;;;;4981531;28;20050;-83
2022/06/05 08:24:41;;;;;;;9.57;8.52;;;21.20;99.90;;;;;;4999690;28;20375;-84
2022/06/05 08:27:10;;;;;;;8.65;7.78;;;21.50;99.90;;;;;;4981750;28;20077;-84
2022/06/05 08:29:36;;;;;;;10.27;8.15;;;21.60;99.90;;;;;;4995801;28;20038;-84
2022/06/05 08:32:02;;;;;;;9.75;7.88;;;21.60;99.90;;;;;;5014422;28;20068;-84
2022/06/05 08:34:28;;;;;;;9.50;7.85;;;21.60;99.90;;;;;;4993477;28;20060;-84
2022/06/05 08:42:53;;;;;;;10.68;8.35;;;22.00;99.90;;;;;;4998334;28;20506;-84
2022/06/05 08:45:23;;;;;;;;;;;22.20;99.90;;;;;;4990459;28;20108;-84
2022/06/05 08:47:55;;;;;;;9.85;7.93;;;22.10;99.90;;;;;;4984172;28;19920;-84
2022/06/05 08:50:44;;;;;;;8.73;7.63;;;22.20;99.90;;;;;;4987108;28;20567;-83
2022/06/05 08:53:28;;;;;;;10.95;7.70;;;22.30;99.90;;;;;;5012613;28;20425;-84
2022/06/05 08:55:55;;;;;;;10.38;8.18;;;22.30;99.90;;;;;;4981301;28;20045;-84
2022/06/05 08:58:32;;;;;;;9.68;8.07;;;22.20;99.90;;;;;;5012178;28;20053;-84
2022/06/05 09:01:04;;;;;;;9.75;7.72;;;22.20;99.90;;;;;;4996450;28;20089;-84
2022/06/05 09:03:46;;;;;;;10.07;7.35;;;22.20;99.90;;;;;;5011933;28;20034;-84
2022/06/05 09:06:45;;;;;;;7.70;6.88;;;22.30;99.90;;;;;;5011139;28;22068;-84
2022/06/05 09:09:20;;;;;;;9.18;7.25;;;22.30;99.90;;;;;;5004093;28;20465;-84
2022/06/05 09:11:56;;;;;;;10.55;7.07;;;22.40;99.90;;;;;;4996307;28;20077;-85
2022/06/05 09:14:44;;;;;;;8.60;7.70;;;22.50;99.90;;;;;;5008734;28;20122;-84
2022/06/05 09:17:16;;;;;;;8.20;6.90;;;22.60;99.90;;;;;;4997160;28;20703;-84
2022/06/05 09:19:43;;;;;;;8.80;7.53;;;22.50;99.90;;;;;;4980914;28;20116;-84
2022/06/05 09:22:19;;;;;;;9.48;7.63;;;22.70;99.90;;;;;;4992929;28;20065;-85
2022/06/05 09:25:12;;;;;;;8.40;7.32;;;23.10;99.90;;;;;;4980340;28;20042;-86
2022/06/05 09:28:02;;;;;;;9.45;7.07;;;23.10;99.90;;;;;;4994305;28;20042;-86
2022/06/05 09:30:59;;;;;;;8.55;6.78;;;23.60;99.90;;;;;;5011238;28;20129;-86
2022/06/05 09:33:35;;;;;;;8.15;6.70;;;23.90;99.90;;;;;;4982726;28;20062;-84
2022/06/05 09:36:08;;;;;;;10.10;7.22;;;23.90;99.10;;;;;;4995623;28;20137;-86
2022/06/05 09:38:42;;;;;;;8.63;7.53;;;23.90;94.20;;;;;;4984088;28;20045;-86
2022/06/05 09:41:28;;;;;;;7.88;6.72;;;23.80;91.30;;;;;;5005749;28;20556;-86
2022/06/05 09:44:19;;;;;;;11.20;7.00;;;24.10;88.60;;;;;;4977809;28;20072;-86
2022/06/05 09:46:56;;;;;;;9.30;7.38;;;24.50;95.70;;;;;;4984060;28;20050;-85
2022/06/05 09:49:32;;;;;;;8.07;6.60;;;24.10;65.00;;;;;;4984088;28;20048;-86
2022/06/05 09:52:04;;;;;;;6.75;6.03;;;24.50;79.10;;;;;;4980109;28;20038;-87
2022/06/05 09:54:32;;;;;;;8.93;6.35;;;24.60;67.30;;;;;;4967661;28;20046;-86
2022/06/05 10:00:43;;;;;;;8.45;6.85;;;24.40;68.60;;;;;;4970877;28;20155;-86
2022/06/05 10:03:15;;;;;;;7.00;6.20;;;24.40;56.30;;;;;;4976901;28;20184;-85
2022/06/05 10:06:04;;;;;;;7.05;6.35;;;24.20;56.40;;;;;;4975469;28;20522;-86
2022/06/05 10:08:43;;;;;;;7.45;6.32;;;24.40;53.10;;;;;;4993654;28;20042;-87
2022/06/05 10:11:31;;;;;;;6.65;6.05;;;24.80;52.50;;;;;;5005687;28;20077;-87
2022/06/05 10:14:17;;;;;;;8.20;6.65;;;24.70;46.10;;;;;;4980401;28;20393;-86
2022/06/05 10:16:56;;;;;;;7.18;6.28;;;25.10;54.20;;;;;;4986710;28;20108;-86
2022/06/05 10:19:52;;;;;;;9.48;6.38;;;25.30;53.70;;;;;;4995506;28;20038;-87
2022/06/05 10:22:47;;;;;;;7.20;6.50;;;25.30;53.50;;;;;;4997772;28;20038;-87
2022/06/05 10:25:30;;;;;;;7.03;6.33;;;25.50;44.10;;;;;;5010629;28;20274;-87
2022/06/05 10:28:27;;;;;;;9.13;6.10;;;25.70;44.60;;;;;;4977387;28;20042;-86
2022/06/05 10:30:55;;;;;;;8.77;6.35;;;25.80;43.70;;;;;;5007365;28;20046;-88
2022/06/05 10:33:49;;;;;;;6.75;6.00;;;25.70;27.90;;;;;;4972497;28;20043;-86
2022/06/05 10:36:57;;;;;;;6.82;5.30;;;25.90;37.40;;;;;;4972160;28;20057;-86
2022/06/05 10:39:41;;;;;;;8.43;6.22;;;25.40;27.40;;;;;;5007297;28;20050;-85
2022/06/05 10:42:13;;;;;;;5.93;5.20;;;25.40;27.90;;;;;;4982682;28;20062;-85
2022/06/05 10:44:51;;;;;;;8.98;5.90;;;25.40;30.50;;;;;;4996728;28;20100;-85
2022/06/05 10:47:29;;;;;;;6.68;5.97;;;25.20;27.90;;;;;;4983757;28;20117;-84
2022/06/05 10:50:04;;;;;;;8.10;6.00;;;25.40;31.70;;;;;;4998568;28;20186;-85
2022/06/05 10:52:48;;;;;;;6.70;6.10;;;25.30;25.90;;;;;;5017641;28;20082;-85
2022/06/05 10:55:26;;;;;;;7.20;6.05;;;25.10;24.90;;;;;;4988341;28;20045;-85
2022/06/05 10:58:07;;;;;;;6.88;5.78;;;24.90;23.40;;;;;;5015027;28;20073;-85
2022/06/05 11:01:00;;;;;;;7.55;5.60;;;24.80;18.10;;;;;;4979346;28;20045;-85
2022/06/05 11:03:34;;;;;;;7.43;5.82;;;25.20;34.30;;;;;;5004469;28;20046;-85
2022/06/05 11:06:39;;;;;;;7.45;5.70;;;25.20;29.90;;;;;;5013793;28;20486;-85
2022/06/05 11:09:26;;;;;;;7.25;5.47;;;25.30;28.10;;;;;;4981781;28;20069;-84
2022/06/05 11:15:02;;;;;;;7.43;5.70;;;25.20;25.20;;;;;;5013543;28;20050;-84
2022/06/05 11:18:05;;;;;;;6.47;5.75;;;25.30;24.90;;;;;;5015311;28;20054;-85
2022/06/05 11:20:33;;;;;;;6.05;5.53;;;25.40;18.80;;;;;;5015245;28;20524;-85
2022/06/05 11:23:06;;;;;;;7.45;6.22;;;25.70;24.40;;;;;;4988763;28;21172;-85
2022/06/05 11:25:49;;;;;;;6.32;5.40;;;25.60;20.80;;;;;;5015570;28;20075;-85
2022/06/05 11:28:30;;;;;;;9.00;6.00;;;25.70;25.20;;;;;;4981270;28;20125;-84
2022/06/05 11:31:13;;;;;;;6.68;5.50;;;25.50;19.60;;;;;;5012089;28;20319;-84
2022/06/05 11:33:49;;;;;;;6.13;5.53;;;25.60;18.90;;;;;;5009187;28;20061;-85
2022/06/05 11:36:30;;;;;;;5.80;5.20;;;25.60;15.90;;;;;;5013527;28;20097;-85
2022/06/05 11:39:24;;;;;;;6.90;5.35;;;25.60;15.80;;;;;;5013985;28;20500;-85
2022/06/05 11:42:13;;;;;;;6.63;5.85;;;25.50;15.90;;;;;;5000647;28;20069;-85
2022/06/05 11:45:05;;;;;;;5.80;5.30;;;25.30;10.20;;;;;;4983430;28;20082;-85
2022/06/05 11:47:50;;;;;;;5.50;5.00;;;25.40;12.10;;;;;;4985155;28;20571;-85
2022/06/05 11:50:51;;;;;;;9.98;5.40;;;25.50;12.60;;;;;;4984526;28;20160;-85
2022/06/05 11:53:44;;;;;;;7.40;5.75;;;25.40;12.20;;;;;;5014409;28;20046;-85
2022/06/05 11:56:31;;;;;;;6.72;4.68;;;25.50;10.20;;;;;;5011358;28;20525;-85
2022/06/05 11:59:18;;;;;;;5.55;4.80;;;25.60;12.30;;;;;;4982750;28;20054;-85
2022/06/05 12:01:50;;;;;;;5.95;5.40;;;25.40;5.00;;;;;;5002946;28;20046;-85
2022/06/05 12:04:19;;;;;;;5.78;4.72;;;25.30;5.70;;;;;;5011746;28;20043;-86
2022/06/05 12:06:51;;;;;;;5.57;4.88;;;25.20;3.60;;;;;;5004521;28;20493;-86
2022/06/05 12:09:23;;;;;;;6.72;5.15;;;25.20;1.00;;;;;;4990657;28;20445;-86
2022/06/05 12:11:58;;;;;;;8.30;5.00;;;25.40;9.50;;;;;;5010771;28;20042;-86
2022/06/05 12:14:32;;;;;;;8.57;5.18;;;25.40;9.40;;;;;;5000233;28;20042;-85
2022/06/05 12:17:00;;;;;;;6.53;5.25;;;25.30;3.50;;;;;;4988671;28;20496;-85
2022/06/05 12:19:57;;;;;;;6.38;4.85;;;25.60;10.70;;;;;;4985754;28;20054;-86
2022/06/05 12:22:35;;;;;;;5.90;5.10;;;25.70;5.40;;;;;;5005068;28;20117;-85
2022/06/05 12:25:16;;;;;;;5.72;5.10;;;25.30;1.00;;;;;;4991768;28;20038;-85
2022/06/05 12:28:12;;;;;;;6.05;5.07;;;25.50;2.50;;;;;;4987414;28;20050;-86
2022/06/05 12:30:56;;;;;;;8.07;5.47;;;25.60;1.00;;;;;;5013564;28;20128;-86
2022/06/05 12:33:35;;;;;;;7.25;5.63;;;25.60;1.00;;;;;;4993021;28;20539;-86
2022/06/05 12:36:12;;;;;;;6.07;5.40;;;25.30;1.00;;;;;;5013460;28;20190;-86
2022/06/05 12:38:45;;;;;;;9.98;5.63;;;25.50;1.00;;;;;;4984135;28;20054;-86
2022/06/05 12:41:20;;;;;;;6.95;5.43;;;25.60;3.60;;;;;;4986068;28;20183;-86
2022/06/05 12:44:27;;;;;;;5.80;5.28;;;25.60;1.00;;;;;;5000135;28;20521;-86
2022/06/05 12:46:56;;;;;;;6.50;5.80;;;25.60;4.10;;;;;;5001461;28;20134;-86
2022/06/05 12:49:34;;;;;;;6.50;5.05;;;25.50;1.00;;;;;;4981456;28;20035;-86
2022/06/05 12:52:40;;;;;;;6.43;5.28;;;25.30;1.00;;;;;;4999069;28;20045;-86
2022/06/05 12:55:16;;;;;;;6.78;5.35;;;25.20;1.00;;;;;;4978754;28;20062;-86
2022/06/05 12:57:45;;;;;;;6.00;5.40;;;25.40;1.00;;;;;;5002947;28;20109;-86
2022/06/05 13:00:56;;;;;;;6.22;5.10;;;25.20;1.00;;;;;;4985225;28;20053;-85
2022/06/05 13:03:52;;;;;;;7.00;5.22;;;25.30;1.00;;;;;;5003059;28;20038;-86
2022/06/05 13:06:18;;;;;;;7.60;5.32;;;25.10;1.00;;;;;;5000069;28;20047;-87
2022/06/05 13:08:48;;;;;;;7.50;5.50;;;24.90;1.00;;;;;;4980055;28;20068;-86
2022/06/05 13:11:19;;;;;;;9.10;5.47;;;25.10;1.00;;;;;;4980026;28;20093;-86
2022/06/05 13:13:50;;;;;;;6.00;5.40;;;25.10;1.00;;;;;;5006513;28;20089;-86
2022/06/05 13:16:48;;;;;;;5.55;5.05;;;25.10;1.00;;;;;;4995571;28;20092;-87
2022/06/05 13:19:23;;;;;;;6.35;5.75;;;25.10;1.00;;;;;;4957427;28;20059;-86
2022/06/05 13:22:25;;;;;;;6.10;5.50;;;25.10;1.00;;;;;;4979566;28;20041;-88
2022/06/05 13:25:09;;;;;;;7.63;5.25;;;25.10;1.00;;;;;;4991225;28;20054;-86
2022/06/05 13:28:08;;;;;;;5.68;5.03;;;25.40;1.00;;;;;;4978759;28;20030;-86
2022/06/05 13:30:54;;;;;;;5.85;5.25;;;25.50;1.00;;;;;;4979843;28;20070;-87
2022/06/05 13:33:28;;;;;;;6.65;5.30;;;25.70;5.80;;;;;;4984563;28;20111;-86
2022/06/05 13:36:04;;;;;;;7.43;5.05;;;25.80;11.90;;;;;;5005947;28;20126;-87